Time;durP1;ratioP1;P1;durP2;ratioP2;P2;SDS_P1;SDS_P2;PMS_P1;PMS_P2;Temp;Humidity;BMP_temperature;BMP_pressure;BME280_temperature;BME280_humidity;BME280_pressure;Samples;Min_cycle;Max_cycle;Signal;HPM_P1;HPM_P2
2023/06/08 00:01:18;;;;;;;;;;;23.30;62.80;;;;;;10022969;28;20272;-71
2023/06/08 00:06:15;;;;;;;;;;;23.20;62.70;;;;;;10025015;28;19917;-62
2023/06/08 00:11:05;;;;;;;;;;;23.10;63.30;;;;;;10022653;28;19988;-60
2023/06/08 00:15:58;;;;;;;;;;;23.20;63.30;;;;;;10026030;28;20000;-60
2023/06/08 00:20:51;;;;;;;;;;;23.00;64.30;;;;;;10022834;28;19948;-61
2023/06/08 00:25:42;;;;;;;;;;;23.10;63.50;;;;;;10023523;28;19924;-62
2023/06/08 00:30:32;;;;;;;;;;;23.20;63.30;;;;;;10022170;28;20327;-63
2023/06/08 00:35:23;;;;;;;;;;;23.10;63.70;;;;;;10023422;28;19944;-60
2023/06/08 00:40:13;;;;;;;;;;;23.10;63.90;;;;;;10023202;28;19909;-63
2023/06/08 00:45:04;;;;;;;;;;;23.00;64.20;;;;;;10023667;28;19925;-64
2023/06/08 00:49:56;;;;;;;;;;;22.70;64.60;;;;;;10022268;28;20286;-67
2023/06/08 00:54:50;;;;;;;;;;;22.70;65.40;;;;;;10021431;28;20008;-60
2023/06/08 00:59:41;;;;;;;;;;;22.70;65.50;;;;;;10021867;28;20449;-69
2023/06/08 01:04:35;;;;;;;;;;;22.50;65.40;;;;;;10021983;28;19922;-61
2023/06/08 01:09:26;;;;;;;;;;;22.60;65.90;;;;;;10021489;28;20362;-64
2023/06/08 01:14:19;;;;;;;;;;;22.50;66.30;;;;;;10021546;28;19921;-61
2023/06/08 01:19:17;;;;;;;;;;;22.40;66.00;;;;;;10020619;28;20375;-62
2023/06/08 01:24:13;;;;;;;;;;;22.20;66.10;;;;;;10023211;28;19913;-61
2023/06/08 01:29:05;;;;;;;;;;;22.20;66.40;;;;;;10021999;28;19982;-61
2023/06/08 01:33:56;;;;;;;;;;;22.20;66.80;;;;;;10020792;28;19913;-62
2023/06/08 01:39:01;;;;;;;;;;;22.10;67.80;;;;;;10020510;28;19913;-61
2023/06/08 01:43:52;;;;;;;;;;;22.10;67.40;;;;;;10019179;28;19922;-60
2023/06/08 01:48:43;;;;;;;;;;;22.30;67.70;;;;;;10020799;28;19912;-61
2023/06/08 01:53:34;;;;;;;;;;;22.20;67.20;;;;;;10020808;28;19910;-60
2023/06/08 01:58:25;;;;;;;;;;;22.10;67.90;;;;;;10020485;28;19905;-61
2023/06/08 02:03:15;;;;;;;;;;;21.90;68.20;;;;;;10019771;28;19932;-61
2023/06/08 02:08:06;;;;;;;;;;;21.90;68.10;;;;;;10019851;28;20064;-60
2023/06/08 02:12:56;;;;;;;;;;;22.00;68.30;;;;;;10019936;28;19909;-60
2023/06/08 02:17:47;;;;;;;;;;;21.90;68.20;;;;;;10019638;28;19938;-61
2023/06/08 02:22:38;;;;;;;;;;;21.70;68.90;;;;;;10017375;28;20005;-64
2023/06/08 02:27:29;;;;;;;;;;;21.50;70.00;;;;;;10010503;28;19909;-64
2023/06/08 02:32:19;;;;;;;;;;;21.50;70.40;;;;;;10020601;28;20138;-61
2023/06/08 02:37:10;;;;;;;;;;;21.50;70.10;;;;;;10019286;28;19909;-62
2023/06/08 02:42:00;;;;;;;;;;;21.50;71.00;;;;;;10018948;28;20340;-62
2023/06/08 02:46:51;;;;;;;;;;;21.40;71.40;;;;;;10017685;28;20371;-60
2023/06/08 02:51:42;;;;;;;;;;;21.50;70.00;;;;;;10018103;28;19910;-64
2023/06/08 02:56:32;;;;;;;;;;;21.50;70.50;;;;;;10017377;28;19909;-61
2023/06/08 03:01:23;;;;;;;;;;;21.50;70.70;;;;;;10000277;28;19905;-60
2023/06/08 03:06:17;;;;;;;;;;;21.50;71.00;;;;;;9997203;28;19921;-60
2023/06/08 03:11:08;;;;;;;;;;;21.40;71.00;;;;;;10011089;28;20239;-59
2023/06/08 03:15:59;;;;;;;;;;;21.30;71.10;;;;;;10016650;28;20382;-60
2023/06/08 03:20:51;;;;;;;;;;;21.40;70.80;;;;;;10016264;28;19913;-60
2023/06/08 03:25:44;;;;;;;;;;;21.30;71.20;;;;;;10017110;28;20333;-62
2023/06/08 03:30:34;;;;;;;;;;;21.30;70.90;;;;;;10017554;28;19910;-64
2023/06/08 03:35:25;;;;;;;;;;;21.10;72.70;;;;;;10017659;28;19909;-62
2023/06/08 03:40:15;;;;;;;;;;;21.10;72.10;;;;;;10016858;28;20351;-60
2023/06/08 03:45:09;;;;;;;;;;;20.90;73.10;;;;;;10016709;28;20028;-63
2023/06/08 03:50:00;;;;;;;;;;;20.90;72.80;;;;;;10017479;28;19996;-64
2023/06/08 03:54:50;;;;;;;;;;;20.90;72.90;;;;;;10028833;28;19916;-63
2023/06/08 03:59:41;;;;;;;;;;;20.90;73.60;;;;;;10020672;28;19909;-67
2023/06/08 04:04:31;;;;;;;;;;;20.90;74.10;;;;;;9999032;28;20361;-60
2023/06/08 04:09:22;;;;;;;;;;;20.80;74.70;;;;;;10003818;28;19916;-61
2023/06/08 04:14:12;;;;;;;;;;;20.70;75.50;;;;;;10023412;28;20016;-64
2023/06/08 04:19:03;;;;;;;;;;;20.90;76.30;;;;;;10024533;28;19905;-62
2023/06/08 04:23:53;;;;;;;;;;;20.80;75.70;;;;;;10023457;28;19917;-63
2023/06/08 04:28:44;;;;;;;;;;;20.70;76.30;;;;;;10026350;28;20429;-64
2023/06/08 04:33:34;;;;;;;;;;;20.80;76.50;;;;;;10023287;28;19906;-61
2023/06/08 04:38:27;;;;;;;;;;;21.00;76.50;;;;;;10022773;28;19905;-61
2023/06/08 04:43:17;;;;;;;;;;;20.80;77.10;;;;;;10022841;28;19925;-62
2023/06/08 04:48:09;;;;;;;;;;;21.10;76.40;;;;;;10022532;28;19905;-62
2023/06/08 04:53:01;;;;;;;;;;;21.10;76.60;;;;;;10004937;28;19913;-61
2023/06/08 04:57:52;;;;;;;;;;;21.20;76.50;;;;;;10006338;28;19910;-64
2023/06/08 05:02:44;;;;;;;;;;;21.30;75.90;;;;;;10022197;28;20296;-60
2023/06/08 05:07:34;;;;;;;;;;;21.50;76.00;;;;;;10019667;28;20457;-61
2023/06/08 05:12:25;;;;;;;;;;;21.50;76.30;;;;;;10023366;28;19996;-59
2023/06/08 05:17:15;;;;;;;;;;;21.30;77.40;;;;;;10020781;28;19905;-61
2023/06/08 05:22:06;;;;;;;;;;;21.30;78.00;;;;;;10020413;28;19909;-63
2023/06/08 05:26:56;;;;;;;;;;;21.30;77.30;;;;;;10020928;28;19928;-60
2023/06/08 05:31:47;;;;;;;;;;;21.40;77.40;;;;;;10019271;28;19906;-61
2023/06/08 05:36:38;;;;;;;;;;;21.40;77.00;;;;;;10018754;28;19950;-59
2023/06/08 05:41:29;;;;;;;;;;;21.40;77.00;;;;;;10020365;28;19921;-61
2023/06/08 05:46:19;;;;;;;;;;;21.40;77.30;;;;;;10002324;28;19921;-62
2023/06/08 05:51:10;;;;;;;;;;;21.40;77.00;;;;;;10022489;28;20004;-62
2023/06/08 05:56:00;;;;;;;;;;;21.30;77.00;;;;;;10018766;28;20288;-61
2023/06/08 06:00:52;;;;;;;;;;;21.50;76.30;;;;;;10019878;28;20455;-62
2023/06/08 06:05:43;;;;;;;;;;;21.70;76.00;;;;;;10020149;28;19917;-67
2023/06/08 06:10:33;;;;;;;;;;;21.50;76.20;;;;;;10020237;28;19932;-62
2023/06/08 06:15:25;;;;;;;;;;;21.30;76.40;;;;;;10021361;28;19909;-60
2023/06/08 06:20:16;;;;;;;;;;;21.30;76.50;;;;;;10019261;28;19939;-60
2023/06/08 06:25:07;;;;;;;;;;;21.30;76.70;;;;;;10015499;28;19929;-62
2023/06/08 06:29:57;;;;;;;;;;;21.50;76.30;;;;;;9999336;28;20304;-61
2023/06/08 06:34:48;;;;;;;;;;;21.50;76.70;;;;;;10017466;28;20442;-61
2023/06/08 06:39:39;;;;;;;;;;;21.50;77.00;;;;;;9999849;28;20295;-59
2023/06/08 06:44:30;;;;;;;;;;;21.50;76.90;;;;;;9995686;28;19937;-61
2023/06/08 06:49:20;;;;;;;;;;;21.80;76.40;;;;;;9996691;28;19913;-61
2023/06/08 06:54:11;;;;;;;;;;;21.80;76.40;;;;;;10017596;28;19909;-59
2023/06/08 06:59:02;;;;;;;;;;;21.90;76.40;;;;;;10017330;28;19913;-60
2023/06/08 07:03:53;;;;;;;;;;;21.80;77.30;;;;;;10017855;28;19979;-59
2023/06/08 07:08:43;;;;;;;;;;;21.70;77.30;;;;;;10001416;28;19913;-60
2023/06/08 07:13:34;;;;;;;;;;;21.70;77.80;;;;;;10017674;28;20003;-65
2023/06/08 07:18:25;;;;;;;;;;;22.00;76.90;;;;;;10017192;28;19984;-59
2023/06/08 07:23:15;;;;;;;;;;;22.10;76.70;;;;;;10017689;28;20007;-59
2023/06/08 07:28:07;;;;;;;;;;;22.20;77.40;;;;;;10017616;28;19960;-58
2023/06/08 07:33:01;;;;;;;;;;;21.90;77.30;;;;;;10017328;28;20371;-60
2023/06/08 07:37:51;;;;;;;;;;;22.00;77.90;;;;;;9999222;28;19910;-61
2023/06/08 07:42:42;;;;;;;;;;;21.90;77.70;;;;;;10019739;28;19921;-60
2023/06/08 07:47:34;;;;;;;;;;;22.30;76.90;;;;;;10023953;28;19917;-61
2023/06/08 07:52:24;;;;;;;;;;;22.50;76.80;;;;;;10023478;28;19925;-60
2023/06/08 07:57:15;;;;;;;;;;;22.70;76.20;;;;;;10022677;28;19910;-66
2023/06/08 08:02:08;;;;;;;;;;;22.90;75.70;;;;;;10038797;28;19917;-63
2023/06/08 08:06:58;;;;;;;;;;;23.00;75.50;;;;;;10022736;28;19924;-60
2023/06/08 08:11:49;;;;;;;;;;;22.90;75.80;;;;;;10023277;28;19913;-62
2023/06/08 08:16:39;;;;;;;;;;;23.00;75.60;;;;;;10022735;28;19989;-68
2023/06/08 08:21:30;;;;;;;;;;;23.20;75.10;;;;;;10001323;28;20024;-63
2023/06/08 08:26:21;;;;;;;;;;;23.70;74.10;;;;;;10010185;28;19928;-61
2023/06/08 08:31:12;;;;;;;;;;;23.60;74.20;;;;;;10016506;28;20012;-60
2023/06/08 08:36:02;;;;;;;;;;;23.50;74.70;;;;;;10017203;28;19909;-65
2023/06/08 08:40:53;;;;;;;;;;;23.50;74.40;;;;;;10022557;28;20346;-67
2023/06/08 08:45:45;;;;;;;;;;;23.60;74.20;;;;;;10021710;28;19979;-69
2023/06/08 08:50:38;;;;;;;;;;;23.90;73.90;;;;;;10017153;28;20284;-67
2023/06/08 08:55:29;;;;;;;;;;;23.90;73.70;;;;;;10020889;28;20375;-63
2023/06/08 09:00:21;;;;;;;;;;;24.20;73.10;;;;;;10021659;28;19909;-64
2023/06/08 09:05:12;;;;;;;;;;;24.00;73.40;;;;;;10021734;28;19921;-63
2023/06/08 09:10:13;;;;;;;;;;;24.10;73.50;;;;;;10003395;28;19913;-61
2023/06/08 09:15:04;;;;;;;;;;;24.30;73.10;;;;;;10020804;28;19910;-64
2023/06/08 09:19:56;;;;;;;;;;;24.20;72.90;;;;;;10020478;28;19983;-62
2023/06/08 09:24:49;;;;;;;;;;;24.40;72.40;;;;;;10015169;28;19960;-64
2023/06/08 09:29:40;;;;;;;;;;;24.40;72.40;;;;;;10012132;28;19910;-64
2023/06/08 09:34:33;;;;;;;;;;;24.40;72.50;;;;;;10003350;28;19967;-63
2023/06/08 09:39:23;;;;;;;;;;;24.50;71.80;;;;;;10019589;28;19913;-64
2023/06/08 09:44:17;;;;;;;;;;;24.50;72.00;;;;;;10020036;28;19923;-65
2023/06/08 09:49:08;;;;;;;;;;;24.80;71.40;;;;;;10019409;28;20020;-64
2023/06/08 09:53:59;;;;;;;;;;;25.10;71.10;;;;;;10019972;28;20471;-66
2023/06/08 09:58:51;;;;;;;;;;;25.40;70.70;;;;;;10018339;28;19961;-69
2023/06/08 10:03:47;;;;;;;;;;;25.40;70.60;;;;;;10018350;28;19921;-66
2023/06/08 10:08:38;;;;;;;;;;;25.60;70.30;;;;;;10018623;28;19909;-69
2023/06/08 10:13:29;;;;;;;;;;;25.80;70.10;;;;;;10018779;28;19913;-64
2023/06/08 10:18:21;;;;;;;;;;;25.60;69.80;;;;;;10017915;28;19906;-63
2023/06/08 10:23:13;;;;;;;;;;;25.60;69.40;;;;;;10000937;28;20018;-70
2023/06/08 10:28:05;;;;;;;;;;;25.60;70.00;;;;;;10018551;28;20009;-69
2023/06/08 10:33:15;;;;;;;;;;;25.70;69.80;;;;;;10015896;28;20014;-72
2023/06/08 10:38:13;;;;;;;;;;;25.60;70.10;;;;;;10018060;28;19909;-69
2023/06/08 10:43:07;;;;;;;;;;;25.70;69.60;;;;;;10015540;28;20291;-66
2023/06/08 10:48:09;;;;;;;;;;;26.00;68.60;;;;;;10019309;28;19913;-69
2023/06/08 10:52:59;;;;;;;;;;;25.90;68.90;;;;;;10014998;28;19960;-74
2023/06/08 10:57:52;;;;;;;;;;;26.00;69.00;;;;;;10018245;28;19953;-69
2023/06/08 11:02:43;;;;;;;;;;;26.30;68.70;;;;;;10017763;28;19959;-69
2023/06/08 11:07:33;;;;;;;;;;;26.30;68.60;;;;;;10017090;28;20407;-70
2023/06/08 11:12:24;;;;;;;;;;;26.50;68.10;;;;;;9997109;28;19928;-69
2023/06/08 11:17:15;;;;;;;;;;;26.50;67.60;;;;;;10014470;28;19906;-69
2023/06/08 11:22:05;;;;;;;;;;;26.60;67.80;;;;;;10024189;28;19925;-68
2023/06/08 11:26:59;;;;;;;;;;;26.90;67.40;;;;;;10024936;28;20287;-68
2023/06/08 11:31:50;;;;;;;;;;;27.20;67.10;;;;;;10021433;28;19928;-68
2023/06/08 11:36:42;;;;;;;;;;;27.30;66.60;;;;;;10023957;28;19911;-68
2023/06/08 11:41:33;;;;;;;;;;;27.50;66.00;;;;;;10022764;28;19964;-75
2023/06/08 11:46:24;;;;;;;;;;;27.40;66.50;;;;;;10015530;28;20590;-72
2023/06/08 11:51:18;;;;;;;;;;;27.40;66.00;;;;;;10021812;28;19948;-72
2023/06/08 11:56:08;;;;;;;;;;;27.70;66.00;;;;;;10017439;28;20421;-73
2023/06/08 12:01:07;;;;;;;;;;;27.90;65.70;;;;;;10017048;28;19953;-74
2023/06/08 12:05:58;;;;;;;;;;;28.20;65.50;;;;;;10015249;28;20069;-71
2023/06/08 12:10:48;;;;;;;;;;;28.60;64.90;;;;;;10021065;28;19914;-72
2023/06/08 12:15:45;;;;;;;;;;;29.00;63.50;;;;;;10021038;28;19984;-80
2023/06/08 12:20:36;;;;;;;;;;;29.10;62.20;;;;;;10000721;28;19920;-77
2023/06/08 12:25:27;;;;;;;;;;;29.10;63.40;;;;;;10021074;28;19961;-73
2023/06/08 12:30:19;;;;;;;;;;;29.00;62.50;;;;;;10017303;28;19953;-73
2023/06/08 12:35:10;;;;;;;;;;;28.60;62.10;;;;;;10020559;28;20019;-76
2023/06/08 12:40:01;;;;;;;;;;;28.30;62.30;;;;;;10003043;28;20020;-75
2023/06/08 12:44:52;;;;;;;;;;;28.20;61.80;;;;;;9982220;28;1148312;-69
2023/06/08 12:49:43;;;;;;;;;;;28.00;61.30;;;;;;10022013;28;20001;-74
2023/06/08 12:54:45;;;;;;;;;;;27.80;59.70;;;;;;10003675;28;20012;-74
2023/06/08 12:59:35;;;;;;;;;;;27.80;60.80;;;;;;10015876;28;19961;-68
2023/06/08 13:04:26;;;;;;;;;;;28.10;60.90;;;;;;10016644;28;19918;-68
2023/06/08 13:09:16;;;;;;;;;;;28.30;60.60;;;;;;10021282;28;19913;-70
2023/06/08 13:14:07;;;;;;;;;;;30.10;60.70;;;;;;10021737;28;19913;-69
2023/06/08 13:19:02;;;;;;;;;;;32.70;60.00;;;;;;10015037;28;19910;-68
2023/06/08 13:23:53;;;;;;;;;;;34.00;58.80;;;;;;10001565;28;19921;-68
2023/06/08 13:28:44;;;;;;;;;;;35.10;58.10;;;;;;10000476;28;19917;-67
2023/06/08 13:33:34;;;;;;;;;;;35.80;55.10;;;;;;10032696;28;19917;-65
2023/06/08 13:38:25;;;;;;;;;;;36.20;57.10;;;;;;10018598;28;19920;-64
2023/06/08 13:43:16;;;;;;;;;;;36.70;56.20;;;;;;10019286;28;19924;-63
2023/06/08 13:48:07;;;;;;;;;;;37.10;56.00;;;;;;10019284;28;19921;-65
2023/06/08 13:52:57;;;;;;;;;;;37.20;55.70;;;;;;10019360;28;19913;-67
2023/06/08 13:57:48;;;;;;;;;;;37.40;53.50;;;;;;10014733;28;19963;-72
2023/06/08 14:02:39;;;;;;;;;;;36.90;53.60;;;;;;10019979;28;20140;-67
2023/06/08 14:07:29;;;;;;;;;;;37.10;53.20;;;;;;10014187;28;19925;-67
2023/06/08 14:12:20;;;;;;;;;;;37.40;52.80;;;;;;10011286;28;19909;-62
2023/06/08 14:17:11;;;;;;;;;;;36.90;52.30;;;;;;10019286;28;19932;-63
2023/06/08 14:22:02;;;;;;;;;;;36.90;51.90;;;;;;10013984;28;19913;-62
2023/06/08 14:26:52;;;;;;;;;;;36.20;52.30;;;;;;10018568;28;19921;-63
2023/06/08 14:31:43;;;;;;;;;;;36.50;52.80;;;;;;10018402;28;19959;-62
2023/06/08 14:36:34;;;;;;;;;;;35.80;52.30;;;;;;9999951;28;19959;-63
2023/06/08 14:41:25;;;;;;;;;;;37.00;51.40;;;;;;10001496;28;20415;-64
2023/06/08 14:46:16;;;;;;;;;;;35.20;52.40;;;;;;10019065;28;19936;-65
2023/06/08 14:51:07;;;;;;;;;;;33.30;53.30;;;;;;10019530;28;20303;-64
2023/06/08 14:55:57;;;;;;;;;;;33.10;53.50;;;;;;10019216;28;19924;-64
2023/06/08 15:00:48;;;;;;;;;;;32.40;53.30;;;;;;10008101;28;19909;-63
2023/06/08 15:05:40;;;;;;;;;;;31.40;52.70;;;;;;10017254;28;19954;-63
2023/06/08 15:10:30;;;;;;;;;;;30.60;53.20;;;;;;10017408;28;20003;-65
2023/06/08 15:15:21;;;;;;;;;;;30.60;53.90;;;;;;10017171;28;20011;-65
2023/06/08 15:20:12;;;;;;;;;;;30.30;53.00;;;;;;10016077;28;19919;-67
2023/06/08 15:25:03;;;;;;;;;;;30.20;53.50;;;;;;10017096;28;19921;-66
2023/06/08 15:29:53;;;;;;;;;;;30.10;53.10;;;;;;10014729;28;20360;-65
2023/06/08 15:34:44;;;;;;;;;;;30.10;52.90;;;;;;10019191;28;19920;-66
2023/06/08 15:39:34;;;;;;;;;;;30.10;52.80;;;;;;10018787;28;19913;-64
2023/06/08 15:44:25;;;;;;;;;;;30.40;52.70;;;;;;10015223;28;20012;-66
2023/06/08 15:49:15;;;;;;;;;;;32.20;51.00;;;;;;10017607;28;19909;-66
2023/06/08 15:54:06;;;;;;;;;;;31.60;52.10;;;;;;10015076;28;19917;-64
2023/06/08 15:58:56;;;;;;;;;;;33.50;50.30;;;;;;10013868;28;20391;-64
2023/06/08 16:03:47;;;;;;;;;;;31.80;51.50;;;;;;10001156;28;19927;-64
2023/06/08 16:08:38;;;;;;;;;;;31.00;52.80;;;;;;10038782;28;19917;-64
2023/06/08 16:13:28;;;;;;;;;;;30.70;52.50;;;;;;10022709;28;19997;-67
2023/06/08 16:18:19;;;;;;;;;;;30.60;52.70;;;;;;10022947;28;19914;-69
2023/06/08 16:23:10;;;;;;;;;;;30.30;52.20;;;;;;10005745;28;20156;-67
2023/06/08 16:28:00;;;;;;;;;;;30.30;52.80;;;;;;10022692;28;20431;-60
2023/06/08 16:32:51;;;;;;;;;;;30.80;52.30;;;;;;10019263;28;20004;-62
2023/06/08 16:37:41;;;;;;;;;;;30.80;52.60;;;;;;10022105;28;20888;-62
2023/06/08 16:42:33;;;;;;;;;;;31.10;52.30;;;;;;10022552;28;19921;-72
2023/06/08 16:47:23;;;;;;;;;;;31.30;52.30;;;;;;10021791;28;19961;-67
2023/06/08 16:52:14;;;;;;;;;;;33.70;50.00;;;;;;10021991;28;19952;-63
2023/06/08 16:57:05;;;;;;;;;;;36.00;48.70;;;;;;10021563;28;19921;-68
2023/06/08 17:01:56;;;;;;;;;;;37.30;47.30;;;;;;10021434;28;20043;-62
2023/06/08 17:06:47;;;;;;;;;;;37.20;48.30;;;;;;10003127;28;20043;-61
2023/06/08 17:11:37;;;;;;;;;;;36.50;48.00;;;;;;10021669;28;20423;-60
2023/06/08 17:16:28;;;;;;;;;;;36.30;47.70;;;;;;10021054;28;20374;-59
2023/06/08 17:21:18;;;;;;;;;;;36.30;48.90;;;;;;10014218;28;19920;-60
2023/06/08 17:26:09;;;;;;;;;;;36.70;48.80;;;;;;10020032;28;19921;-61
2023/06/08 17:31:01;;;;;;;;;;;36.10;48.40;;;;;;10020499;28;19923;-60
2023/06/08 17:35:51;;;;;;;;;;;36.00;48.80;;;;;;10019706;28;19910;-61
2023/06/08 17:40:42;;;;;;;;;;;35.30;49.00;;;;;;10020167;28;20000;-61
2023/06/08 17:45:32;;;;;;;;;;;34.60;49.80;;;;;;10019327;28;20410;-62
2023/06/08 17:50:23;;;;;;;;;;;34.20;49.40;;;;;;9998332;28;19917;-62
2023/06/08 17:55:14;;;;;;;;;;;33.60;50.70;;;;;;10019550;28;19909;-64
2023/06/08 18:00:05;;;;;;;;;;;33.70;50.80;;;;;;10019699;28;19960;-61
2023/06/08 18:04:55;;;;;;;;;;;32.30;51.70;;;;;;10019434;28;19917;-64
2023/06/08 18:09:46;;;;;;;;;;;30.80;53.20;;;;;;10019853;28;19909;-65
2023/06/08 18:14:37;;;;;;;;;;;29.60;54.00;;;;;;10018858;28;19917;-66
2023/06/08 18:19:27;;;;;;;;;;;29.20;54.00;;;;;;10018646;28;19921;-67
2023/06/08 18:24:18;;;;;;;;;;;29.00;53.80;;;;;;10018936;28;19925;-68
2023/06/08 18:32:50;;;;;;;4.13;2.83;;;28.20;53.80;;;;;;10072783;27;95804;-65
2023/06/08 18:37:41;;;;;;;3.33;2.05;;;28.10;54.10;;;;;;10127532;28;20045;-65
2023/06/08 18:42:32;;;;;;;4.28;2.25;;;27.90;54.30;;;;;;10123373;28;20029;-66
2023/06/08 18:47:23;;;;;;;4.70;3.13;;;27.70;54.80;;;;;;10117682;28;20487;-68
2023/06/08 18:52:13;;;;;;;4.90;2.40;;;27.50;55.30;;;;;;10120536;28;20036;-69
2023/06/08 18:57:05;;;;;;;4.20;3.10;;;27.30;55.80;;;;;;10115769;28;20016;-68
2023/06/08 19:01:56;;;;;;;2.63;1.92;;;27.20;56.10;;;;;;10106107;28;20056;-69
2023/06/08 19:06:47;;;;;;;5.35;2.80;;;27.10;56.50;;;;;;10104056;28;20064;-68
2023/06/08 19:11:38;;;;;;;4.50;2.90;;;26.90;57.00;;;;;;10118944;28;20050;-69
2023/06/08 19:16:31;;;;;;;4.93;3.00;;;26.80;57.30;;;;;;10118769;28;20024;-77
2023/06/08 19:21:23;;;;;;;4.00;2.45;;;26.70;57.50;;;;;;10114865;28;20634;-71
2023/06/08 19:26:14;;;;;;;7.15;2.88;;;26.60;58.00;;;;;;10111593;28;20170;-70
2023/06/08 19:31:04;;;;;;;3.88;2.42;;;26.40;58.20;;;;;;10108162;28;20087;-70
2023/06/08 19:35:55;;;;;;;4.57;2.63;;;26.40;58.50;;;;;;10098819;28;20029;-71
2023/06/08 19:40:46;;;;;;;3.92;2.88;;;26.10;59.10;;;;;;10118745;28;20032;-68
2023/06/08 19:45:37;;;;;;;4.55;2.80;;;26.10;59.30;;;;;;10093360;28;20029;-65
2023/06/08 19:50:28;;;;;;;4.05;2.60;;;26.10;59.50;;;;;;10085789;28;20072;-67
2023/06/08 19:55:18;;;;;;;4.25;3.28;;;25.90;59.90;;;;;;10087645;28;20466;-62
2023/06/08 20:00:10;;;;;;;5.72;3.00;;;25.80;60.00;;;;;;10083051;28;20116;-62
2023/06/08 20:05:01;;;;;;;4.43;3.05;;;25.80;60.20;;;;;;10090812;28;20546;-61
2023/06/08 20:09:52;;;;;;;3.17;2.45;;;25.90;60.40;;;;;;10091189;28;20270;-62
2023/06/08 20:14:43;;;;;;;4.57;2.72;;;25.80;60.70;;;;;;10098075;28;20494;-68
2023/06/08 20:19:34;;;;;;;4.43;2.60;;;25.60;61.30;;;;;;10085369;28;20406;-63
2023/06/08 20:24:25;;;;;;;3.30;2.70;;;25.60;61.60;;;;;;10087390;28;20446;-61
2023/06/08 20:29:17;;;;;;;3.22;2.88;;;25.50;61.90;;;;;;10076875;28;20090;-61
2023/06/08 20:34:09;;;;;;;3.88;2.65;;;25.50;62.00;;;;;;10072305;28;20037;-63
2023/06/08 20:39:00;;;;;;;4.50;2.55;;;25.60;62.40;;;;;;10091082;28;20063;-62
2023/06/08 20:43:50;;;;;;;3.88;2.40;;;25.30;63.10;;;;;;10094556;28;20020;-65
2023/06/08 20:48:41;;;;;;;3.80;2.47;;;25.20;63.50;;;;;;10084901;28;20400;-61
2023/06/08 20:53:32;;;;;;;3.33;2.78;;;25.20;63.60;;;;;;10094473;28;20101;-63
2023/06/08 20:58:22;;;;;;;4.50;3.10;;;25.10;64.00;;;;;;10074051;28;20032;-63
2023/06/08 21:03:15;;;;;;;2.85;2.28;;;25.20;64.10;;;;;;10080215;28;20029;-62
2023/06/08 21:08:06;;;;;;;3.72;2.50;;;25.20;64.20;;;;;;10091020;28;20429;-64
2023/06/08 21:12:57;;;;;;;2.80;2.40;;;24.70;65.00;;;;;;10090501;28;20029;-62
2023/06/08 21:17:48;;;;;;;3.30;2.58;;;24.60;65.30;;;;;;10090759;28;20532;-62
2023/06/08 21:22:40;;;;;;;3.15;2.63;;;24.70;65.00;;;;;;10078087;28;20108;-63
2023/06/08 21:27:30;;;;;;;3.30;2.58;;;24.70;65.00;;;;;;10078622;28;20025;-61
2023/06/08 21:32:21;;;;;;;5.53;3.13;;;24.70;65.20;;;;;;10071417;28;20053;-62
2023/06/08 21:37:15;;;;;;;4.55;2.88;;;24.90;65.20;;;;;;10087003;28;20105;-59
2023/06/08 21:42:06;;;;;;;4.50;2.63;;;24.70;65.50;;;;;;10093105;28;20029;-60
2023/06/08 21:46:56;;;;;;;4.20;2.85;;;24.40;65.80;;;;;;10092608;28;20214;-63
2023/06/08 21:51:47;;;;;;;7.22;3.97;;;24.40;65.90;;;;;;10084927;28;20087;-62
2023/06/08 21:56:39;;;;;;;4.03;2.72;;;24.30;66.10;;;;;;10085931;28;20029;-60
2023/06/08 22:01:29;;;;;;;5.03;2.67;;;24.20;66.30;;;;;;10075345;28;20515;-63
2023/06/08 22:06:20;;;;;;;2.92;2.70;;;24.20;66.30;;;;;;10078983;28;20037;-69
2023/06/08 22:11:11;;;;;;;4.38;2.90;;;23.90;66.80;;;;;;10089036;28;20036;-63
2023/06/08 22:16:02;;;;;;;3.85;2.78;;;24.00;66.80;;;;;;10086305;28;20510;-64
2023/06/08 22:20:55;;;;;;;4.68;2.88;;;23.80;67.10;;;;;;10079339;28;20037;-66
2023/06/08 22:25:46;;;;;;;4.15;3.25;;;23.50;67.50;;;;;;10067638;28;20090;-62
2023/06/08 22:30:37;;;;;;;4.53;2.95;;;23.70;67.60;;;;;;10075094;28;20599;-63
2023/06/08 22:35:28;;;;;;;7.88;3.35;;;23.80;67.40;;;;;;10068505;28;20074;-64
2023/06/08 22:40:18;;;;;;;6.75;3.95;;;23.70;67.80;;;;;;10092415;28;20090;-65
2023/06/08 22:45:09;;;;;;;4.80;2.80;;;23.60;68.10;;;;;;10087936;28;20538;-64
2023/06/08 22:50:00;;;;;;;4.05;2.55;;;23.30;69.00;;;;;;10083874;28;20047;-64
2023/06/08 22:54:51;;;;;;;5.05;3.15;;;23.00;69.90;;;;;;10083704;28;20395;-64
2023/06/08 22:59:42;;;;;;;3.83;2.83;;;22.90;70.10;;;;;;10073437;28;20063;-65
2023/06/08 23:04:35;;;;;;;4.60;3.03;;;23.00;70.20;;;;;;10099209;28;20399;-67
2023/06/08 23:09:29;;;;;;;4.80;3.50;;;22.90;70.60;;;;;;10088229;28;20029;-67
2023/06/08 23:14:22;;;;;;;6.82;3.78;;;22.60;71.40;;;;;;10089414;28;20119;-64
2023/06/08 23:19:13;;;;;;;4.35;3.20;;;22.50;71.90;;;;;;10092018;28;20415;-64
2023/06/08 23:24:05;;;;;;;5.00;3.38;;;22.50;72.40;;;;;;10085712;28;20037;-64
2023/06/08 23:28:59;;;;;;;6.78;3.30;;;22.60;72.20;;;;;;10094418;28;20048;-64
2023/06/08 23:33:50;;;;;;;5.47;3.77;;;22.50;72.60;;;;;;10081810;28;20512;-64
2023/06/08 23:38:41;;;;;;;4.45;3.15;;;22.30;73.00;;;;;;10094602;28;20040;-65
2023/06/08 23:43:32;;;;;;;5.57;3.75;;;22.30;73.10;;;;;;10094014;28;20386;-65
2023/06/08 23:48:23;;;;;;;5.13;3.00;;;22.30;73.40;;;;;;10085592;28;20116;-64
2023/06/08 23:53:14;;;;;;;5.78;3.42;;;22.30;73.30;;;;;;10089597;28;20510;-62
2023/06/08 23:58:05;;;;;;;4.75;3.22;;;22.10;73.80;;;;;;10077392;28;20060;-61
